sensor_id;sensor_type;location;lat;lon;timestamp;P1;durP1;ratioP1;P2;durP2;ratioP2
61685;SDS011;47592;45.904;8.978;2023-08-07T00:00:10;1.10;;;0.30;;
61685;SDS011;47592;45.904;8.978;2023-08-07T00:02:36;1.80;;;0.20;;
61685;SDS011;47592;45.904;8.978;2023-08-07T00:05:01;0.93;;;0.30;;
61685;SDS011;47592;45.904;8.978;2023-08-07T00:07:29;3.50;;;0.40;;
61685;SDS011;47592;45.904;8.978;2023-08-07T00:09:54;0.85;;;0.32;;
61685;SDS011;47592;45.904;8.978;2023-08-07T00:12:19;0.55;;;0.20;;
61685;SDS011;47592;45.904;8.978;2023-08-07T00:14:46;0.73;;;0.20;;
61685;SDS011;47592;45.904;8.978;2023-08-07T00:17:12;1.73;;;0.32;;
61685;SDS011;47592;45.904;8.978;2023-08-07T00:19:37;0.40;;;0.20;;
61685;SDS011;47592;45.904;8.978;2023-08-07T00:22:04;1.42;;;0.30;;
61685;SDS011;47592;45.904;8.978;2023-08-07T00:24:30;1.25;;;0.35;;
61685;SDS011;47592;45.904;8.978;2023-08-07T00:26:55;0.50;;;0.17;;
61685;SDS011;47592;45.904;8.978;2023-08-07T00:29:21;0.60;;;0.20;;
61685;SDS011;47592;45.904;8.978;2023-08-07T00:31:48;1.43;;;0.30;;
61685;SDS011;47592;45.904;8.978;2023-08-07T00:34:14;1.95;;;0.30;;
61685;SDS011;47592;45.904;8.978;2023-08-07T00:36:39;1.15;;;0.20;;
61685;SDS011;47592;45.904;8.978;2023-08-07T00:39:07;1.08;;;0.20;;
61685;SDS011;47592;45.904;8.978;2023-08-07T00:41:33;0.75;;;0.20;;
61685;SDS011;47592;45.904;8.978;2023-08-07T00:43:58;0.93;;;0.30;;
61685;SDS011;47592;45.904;8.978;2023-08-07T00:46:24;1.27;;;0.20;;
61685;SDS011;47592;45.904;8.978;2023-08-07T00:48:49;1.98;;;0.35;;
61685;SDS011;47592;45.904;8.978;2023-08-07T00:51:14;1.05;;;0.22;;
61685;SDS011;47592;45.904;8.978;2023-08-07T00:53:39;0.73;;;0.20;;
61685;SDS011;47592;45.904;8.978;2023-08-07T00:56:05;0.73;;;0.22;;
61685;SDS011;47592;45.904;8.978;2023-08-07T00:58:31;1.35;;;0.30;;
61685;SDS011;47592;45.904;8.978;2023-08-07T01:00:58;0.47;;;0.10;;
61685;SDS011;47592;45.904;8.978;2023-08-07T01:03:24;0.90;;;0.30;;
61685;SDS011;47592;45.904;8.978;2023-08-07T01:05:53;1.38;;;0.30;;
61685;SDS011;47592;45.904;8.978;2023-08-07T01:08:19;0.20;;;0.10;;
61685;SDS011;47592;45.904;8.978;2023-08-07T01:13:18;1.20;;;0.30;;
61685;SDS011;47592;45.904;8.978;2023-08-07T01:15:44;1.20;;;0.30;;
61685;SDS011;47592;45.904;8.978;2023-08-07T01:18:14;0.82;;;0.20;;
61685;SDS011;47592;45.904;8.978;2023-08-07T01:20:39;1.13;;;0.30;;
61685;SDS011;47592;45.904;8.978;2023-08-07T01:23:05;0.85;;;0.30;;
61685;SDS011;47592;45.904;8.978;2023-08-07T01:25:30;1.23;;;0.30;;
61685;SDS011;47592;45.904;8.978;2023-08-07T01:28:02;1.42;;;0.40;;
61685;SDS011;47592;45.904;8.978;2023-08-07T01:30:38;1.27;;;0.32;;
61685;SDS011;47592;45.904;8.978;2023-08-07T01:35:51;0.40;;;0.20;;
61685;SDS011;47592;45.904;8.978;2023-08-07T01:38:18;1.48;;;0.30;;
61685;SDS011;47592;45.904;8.978;2023-08-07T01:40:46;0.90;;;0.20;;
61685;SDS011;47592;45.904;8.978;2023-08-07T01:43:11;0.85;;;0.20;;
61685;SDS011;47592;45.904;8.978;2023-08-07T01:45:36;1.55;;;0.32;;
61685;SDS011;47592;45.904;8.978;2023-08-07T01:48:02;0.88;;;0.20;;
61685;SDS011;47592;45.904;8.978;2023-08-07T01:50:27;0.65;;;0.20;;
61685;SDS011;47592;45.904;8.978;2023-08-07T01:52:54;0.43;;;0.15;;
61685;SDS011;47592;45.904;8.978;2023-08-07T01:55:19;0.90;;;0.30;;
61685;SDS011;47592;45.904;8.978;2023-08-07T01:57:50;0.87;;;0.30;;
61685;SDS011;47592;45.904;8.978;2023-08-07T02:00:16;0.70;;;0.30;;
61685;SDS011;47592;45.904;8.978;2023-08-07T02:02:41;0.60;;;0.20;;
61685;SDS011;47592;45.904;8.978;2023-08-07T02:05:10;1.85;;;0.45;;
61685;SDS011;47592;45.904;8.978;2023-08-07T02:07:35;1.67;;;0.40;;
61685;SDS011;47592;45.904;8.978;2023-08-07T02:10:00;1.17;;;0.33;;
61685;SDS011;47592;45.904;8.978;2023-08-07T02:12:25;0.88;;;0.30;;
61685;SDS011;47592;45.904;8.978;2023-08-07T02:14:52;1.65;;;0.40;;
61685;SDS011;47592;45.904;8.978;2023-08-07T02:17:20;1.17;;;0.40;;
61685;SDS011;47592;45.904;8.978;2023-08-07T02:19:48;1.25;;;0.35;;
61685;SDS011;47592;45.904;8.978;2023-08-07T02:22:15;1.37;;;0.30;;
61685;SDS011;47592;45.904;8.978;2023-08-07T02:24:41;1.65;;;0.50;;
61685;SDS011;47592;45.904;8.978;2023-08-07T02:27:08;1.50;;;0.40;;
61685;SDS011;47592;45.904;8.978;2023-08-07T02:29:33;1.05;;;0.30;;
61685;SDS011;47592;45.904;8.978;2023-08-07T02:32:02;1.25;;;0.40;;
61685;SDS011;47592;45.904;8.978;2023-08-07T02:34:29;2.13;;;0.40;;
61685;SDS011;47592;45.904;8.978;2023-08-07T02:36:57;1.33;;;0.40;;
61685;SDS011;47592;45.904;8.978;2023-08-07T02:39:22;2.08;;;0.40;;
61685;SDS011;47592;45.904;8.978;2023-08-07T02:41:48;1.67;;;0.40;;
61685;SDS011;47592;45.904;8.978;2023-08-07T02:44:13;1.00;;;0.30;;
61685;SDS011;47592;45.904;8.978;2023-08-07T02:46:38;0.90;;;0.40;;
61685;SDS011;47592;45.904;8.978;2023-08-07T02:49:06;1.05;;;0.40;;
61685;SDS011;47592;45.904;8.978;2023-08-07T02:51:34;1.27;;;0.30;;
61685;SDS011;47592;45.904;8.978;2023-08-07T02:53:59;1.63;;;0.53;;
61685;SDS011;47592;45.904;8.978;2023-08-07T02:56:24;1.63;;;0.50;;
61685;SDS011;47592;45.904;8.978;2023-08-07T02:58:50;1.15;;;0.40;;
61685;SDS011;47592;45.904;8.978;2023-08-07T03:01:15;2.00;;;0.40;;
61685;SDS011;47592;45.904;8.978;2023-08-07T03:03:40;1.45;;;0.40;;
61685;SDS011;47592;45.904;8.978;2023-08-07T03:06:06;1.03;;;0.30;;
61685;SDS011;47592;45.904;8.978;2023-08-07T03:08:31;1.00;;;0.30;;
61685;SDS011;47592;45.904;8.978;2023-08-07T03:10:58;1.60;;;0.30;;
61685;SDS011;47592;45.904;8.978;2023-08-07T03:13:27;1.60;;;0.40;;
61685;SDS011;47592;45.904;8.978;2023-08-07T03:16:04;1.05;;;0.30;;
61685;SDS011;47592;45.904;8.978;2023-08-07T03:18:30;1.90;;;0.40;;
61685;SDS011;47592;45.904;8.978;2023-08-07T03:20:55;0.90;;;0.30;;
61685;SDS011;47592;45.904;8.978;2023-08-07T03:23:24;1.05;;;0.35;;
61685;SDS011;47592;45.904;8.978;2023-08-07T03:25:50;1.20;;;0.40;;
61685;SDS011;47592;45.904;8.978;2023-08-07T03:28:17;1.65;;;0.40;;
61685;SDS011;47592;45.904;8.978;2023-08-07T03:30:43;1.93;;;0.47;;
61685;SDS011;47592;45.904;8.978;2023-08-07T03:33:09;0.70;;;0.30;;
61685;SDS011;47592;45.904;8.978;2023-08-07T03:35:34;1.00;;;0.25;;
61685;SDS011;47592;45.904;8.978;2023-08-07T03:38:00;2.30;;;0.50;;
61685;SDS011;47592;45.904;8.978;2023-08-07T03:40:25;1.47;;;0.30;;
61685;SDS011;47592;45.904;8.978;2023-08-07T03:42:50;1.33;;;0.30;;
61685;SDS011;47592;45.904;8.978;2023-08-07T03:45:20;2.28;;;0.50;;
61685;SDS011;47592;45.904;8.978;2023-08-07T03:47:45;0.85;;;0.30;;
61685;SDS011;47592;45.904;8.978;2023-08-07T03:50:10;1.42;;;0.43;;
61685;SDS011;47592;45.904;8.978;2023-08-07T03:52:36;0.97;;;0.30;;
61685;SDS011;47592;45.904;8.978;2023-08-07T03:55:04;1.10;;;0.28;;
61685;SDS011;47592;45.904;8.978;2023-08-07T03:57:29;1.08;;;0.30;;
61685;SDS011;47592;45.904;8.978;2023-08-07T03:59:54;1.93;;;0.40;;
61685;SDS011;47592;45.904;8.978;2023-08-07T04:02:20;1.30;;;0.30;;
61685;SDS011;47592;45.904;8.978;2023-08-07T04:04:45;2.97;;;0.50;;
61685;SDS011;47592;45.904;8.978;2023-08-07T04:07:10;0.73;;;0.30;;
61685;SDS011;47592;45.904;8.978;2023-08-07T04:09:35;2.20;;;0.50;;
61685;SDS011;47592;45.904;8.978;2023-08-07T04:12:03;1.17;;;0.30;;
61685;SDS011;47592;45.904;8.978;2023-08-07T04:14:28;0.95;;;0.20;;
61685;SDS011;47592;45.904;8.978;2023-08-07T04:16:54;1.27;;;0.30;;
61685;SDS011;47592;45.904;8.978;2023-08-07T04:19:20;0.93;;;0.20;;
61685;SDS011;47592;45.904;8.978;2023-08-07T04:21:45;1.23;;;0.30;;
61685;SDS011;47592;45.904;8.978;2023-08-07T04:24:13;0.63;;;0.20;;
61685;SDS011;47592;45.904;8.978;2023-08-07T04:26:40;2.17;;;0.40;;
61685;SDS011;47592;45.904;8.978;2023-08-07T04:29:05;0.85;;;0.20;;
61685;SDS011;47592;45.904;8.978;2023-08-07T04:31:31;0.63;;;0.20;;
61685;SDS011;47592;45.904;8.978;2023-08-07T04:33:56;1.00;;;0.30;;
61685;SDS011;47592;45.904;8.978;2023-08-07T04:36:24;2.08;;;0.30;;
61685;SDS011;47592;45.904;8.978;2023-08-07T04:38:50;1.80;;;0.90;;
61685;SDS011;47592;45.904;8.978;2023-08-07T04:41:15;1.88;;;0.25;;
61685;SDS011;47592;45.904;8.978;2023-08-07T04:43:43;1.60;;;0.40;;
61685;SDS011;47592;45.904;8.978;2023-08-07T04:46:15;1.58;;;0.40;;
61685;SDS011;47592;45.904;8.978;2023-08-07T04:48:40;0.98;;;0.30;;
61685;SDS011;47592;45.904;8.978;2023-08-07T04:51:06;1.25;;;0.30;;
61685;SDS011;47592;45.904;8.978;2023-08-07T04:53:31;0.35;;;0.20;;
61685;SDS011;47592;45.904;8.978;2023-08-07T04:55:59;0.90;;;0.27;;
61685;SDS011;47592;45.904;8.978;2023-08-07T04:58:24;1.75;;;0.40;;
61685;SDS011;47592;45.904;8.978;2023-08-07T05:00:53;1.43;;;0.40;;
61685;SDS011;47592;45.904;8.978;2023-08-07T05:03:19;1.25;;;0.40;;
61685;SDS011;47592;45.904;8.978;2023-08-07T05:05:44;1.58;;;0.30;;
61685;SDS011;47592;45.904;8.978;2023-08-07T05:08:10;1.10;;;0.40;;
61685;SDS011;47592;45.904;8.978;2023-08-07T05:10:37;1.70;;;0.40;;
61685;SDS011;47592;45.904;8.978;2023-08-07T05:13:03;0.77;;;0.30;;
61685;SDS011;47592;45.904;8.978;2023-08-07T05:15:30;0.93;;;0.30;;
61685;SDS011;47592;45.904;8.978;2023-08-07T05:17:58;1.63;;;0.40;;
61685;SDS011;47592;45.904;8.978;2023-08-07T05:20:26;1.08;;;0.30;;
61685;SDS011;47592;45.904;8.978;2023-08-07T05:22:54;0.80;;;0.30;;
61685;SDS011;47592;45.904;8.978;2023-08-07T05:25:21;0.70;;;0.30;;
61685;SDS011;47592;45.904;8.978;2023-08-07T05:27:48;1.25;;;0.20;;
61685;SDS011;47592;45.904;8.978;2023-08-07T05:30:13;1.13;;;0.30;;
61685;SDS011;47592;45.904;8.978;2023-08-07T05:32:43;0.80;;;0.30;;
61685;SDS011;47592;45.904;8.978;2023-08-07T05:35:11;0.68;;;0.20;;
61685;SDS011;47592;45.904;8.978;2023-08-07T05:37:36;0.63;;;0.28;;
61685;SDS011;47592;45.904;8.978;2023-08-07T05:40:02;0.82;;;0.20;;
61685;SDS011;47592;45.904;8.978;2023-08-07T05:42:30;0.68;;;0.30;;
61685;SDS011;47592;45.904;8.978;2023-08-07T05:44:55;0.67;;;0.20;;
61685;SDS011;47592;45.904;8.978;2023-08-07T05:47:23;0.63;;;0.20;;
61685;SDS011;47592;45.904;8.978;2023-08-07T05:49:48;1.05;;;0.20;;
61685;SDS011;47592;45.904;8.978;2023-08-07T05:52:16;1.02;;;0.30;;
61685;SDS011;47592;45.904;8.978;2023-08-07T05:54:45;1.27;;;0.30;;
61685;SDS011;47592;45.904;8.978;2023-08-07T05:57:10;0.63;;;0.27;;
61685;SDS011;47592;45.904;8.978;2023-08-07T05:59:38;2.28;;;0.30;;
61685;SDS011;47592;45.904;8.978;2023-08-07T06:02:05;1.13;;;0.30;;
61685;SDS011;47592;45.904;8.978;2023-08-07T06:04:31;1.40;;;0.30;;
61685;SDS011;47592;45.904;8.978;2023-08-07T06:06:56;1.17;;;0.23;;
61685;SDS011;47592;45.904;8.978;2023-08-07T06:09:21;0.73;;;0.20;;
61685;SDS011;47592;45.904;8.978;2023-08-07T06:11:49;1.17;;;0.30;;
61685;SDS011;47592;45.904;8.978;2023-08-07T06:14:14;1.40;;;0.30;;
61685;SDS011;47592;45.904;8.978;2023-08-07T06:16:39;0.82;;;0.22;;
61685;SDS011;47592;45.904;8.978;2023-08-07T06:19:05;0.88;;;0.20;;
61685;SDS011;47592;45.904;8.978;2023-08-07T06:21:30;0.68;;;0.20;;
61685;SDS011;47592;45.904;8.978;2023-08-07T06:23:55;0.22;;;0.10;;
61685;SDS011;47592;45.904;8.978;2023-08-07T06:26:21;1.87;;;0.30;;
61685;SDS011;47592;45.904;8.978;2023-08-07T06:28:46;1.10;;;0.30;;
61685;SDS011;47592;45.904;8.978;2023-08-07T06:31:11;0.53;;;0.20;;
61685;SDS011;47592;45.904;8.978;2023-08-07T06:33:40;0.93;;;0.22;;
61685;SDS011;47592;45.904;8.978;2023-08-07T06:36:06;0.73;;;0.20;;
61685;SDS011;47592;45.904;8.978;2023-08-07T06:38:31;1.73;;;0.40;;
61685;SDS011;47592;45.904;8.978;2023-08-07T06:40:59;0.80;;;0.30;;
61685;SDS011;47592;45.904;8.978;2023-08-07T06:43:27;1.05;;;0.30;;
61685;SDS011;47592;45.904;8.978;2023-08-07T06:45:55;0.73;;;0.20;;
61685;SDS011;47592;45.904;8.978;2023-08-07T06:48:22;1.33;;;0.40;;
61685;SDS011;47592;45.904;8.978;2023-08-07T06:50:50;0.65;;;0.20;;
61685;SDS011;47592;45.904;8.978;2023-08-07T06:53:16;1.17;;;0.30;;
61685;SDS011;47592;45.904;8.978;2023-08-07T06:55:41;1.13;;;0.30;;
61685;SDS011;47592;45.904;8.978;2023-08-07T06:58:06;1.02;;;0.30;;
61685;SDS011;47592;45.904;8.978;2023-08-07T07:00:32;1.42;;;0.38;;
61685;SDS011;47592;45.904;8.978;2023-08-07T07:03:00;1.83;;;0.32;;
61685;SDS011;47592;45.904;8.978;2023-08-07T07:05:25;1.70;;;0.40;;
61685;SDS011;47592;45.904;8.978;2023-08-07T07:07:50;0.67;;;0.20;;
61685;SDS011;47592;45.904;8.978;2023-08-07T07:10:15;1.43;;;0.30;;
61685;SDS011;47592;45.904;8.978;2023-08-07T07:12:41;2.47;;;0.10;;
61685;SDS011;47592;45.904;8.978;2023-08-07T07:15:06;0.93;;;0.30;;
61685;SDS011;47592;45.904;8.978;2023-08-07T07:17:31;1.23;;;0.32;;
61685;SDS011;47592;45.904;8.978;2023-08-07T07:19:57;1.00;;;0.30;;
61685;SDS011;47592;45.904;8.978;2023-08-07T07:22:22;1.80;;;0.30;;
61685;SDS011;47592;45.904;8.978;2023-08-07T07:24:47;0.98;;;0.22;;
61685;SDS011;47592;45.904;8.978;2023-08-07T07:27:17;1.15;;;0.20;;
61685;SDS011;47592;45.904;8.978;2023-08-07T07:29:47;0.35;;;0.10;;
61685;SDS011;47592;45.904;8.978;2023-08-07T07:32:12;0.98;;;0.20;;
61685;SDS011;47592;45.904;8.978;2023-08-07T07:34:37;1.03;;;0.20;;
61685;SDS011;47592;45.904;8.978;2023-08-07T07:37:05;1.85;;;0.30;;
61685;SDS011;47592;45.904;8.978;2023-08-07T07:39:30;0.88;;;0.20;;
61685;SDS011;47592;45.904;8.978;2023-08-07T07:41:55;0.40;;;0.10;;
61685;SDS011;47592;45.904;8.978;2023-08-07T07:44:20;1.27;;;0.27;;
61685;SDS011;47592;45.904;8.978;2023-08-07T07:46:46;2.93;;;0.40;;
61685;SDS011;47592;45.904;8.978;2023-08-07T07:49:11;0.43;;;0.10;;
61685;SDS011;47592;45.904;8.978;2023-08-07T07:51:36;0.97;;;0.20;;
61685;SDS011;47592;45.904;8.978;2023-08-07T07:54:02;0.30;;;0.10;;
61685;SDS011;47592;45.904;8.978;2023-08-07T07:56:30;0.98;;;0.20;;
61685;SDS011;47592;45.904;8.978;2023-08-07T07:58:55;1.17;;;0.38;;
61685;SDS011;47592;45.904;8.978;2023-08-07T08:01:21;0.47;;;0.10;;
61685;SDS011;47592;45.904;8.978;2023-08-07T08:03:46;0.67;;;0.20;;
61685;SDS011;47592;45.904;8.978;2023-08-07T08:06:11;0.70;;;0.20;;
61685;SDS011;47592;45.904;8.978;2023-08-07T08:08:39;1.45;;;0.28;;
61685;SDS011;47592;45.904;8.978;2023-08-07T08:11:04;0.80;;;0.22;;
61685;SDS011;47592;45.904;8.978;2023-08-07T08:13:30;0.37;;;0.10;;
61685;SDS011;47592;45.904;8.978;2023-08-07T08:16:00;0.97;;;0.20;;
61685;SDS011;47592;45.904;8.978;2023-08-07T08:18:28;0.88;;;0.20;;
61685;SDS011;47592;45.904;8.978;2023-08-07T08:20:53;1.65;;;0.30;;
61685;SDS011;47592;45.904;8.978;2023-08-07T08:23:19;0.80;;;0.25;;
61685;SDS011;47592;45.904;8.978;2023-08-07T08:25:44;1.73;;;0.60;;
61685;SDS011;47592;45.904;8.978;2023-08-07T08:28:11;4.03;;;1.40;;
61685;SDS011;47592;45.904;8.978;2023-08-07T08:30:39;3.38;;;1.20;;
61685;SDS011;47592;45.904;8.978;2023-08-07T08:33:04;2.23;;;0.70;;
61685;SDS011;47592;45.904;8.978;2023-08-07T08:35:30;2.90;;;1.00;;
61685;SDS011;47592;45.904;8.978;2023-08-07T08:37:58;2.40;;;0.70;;
61685;SDS011;47592;45.904;8.978;2023-08-07T08:40:26;2.53;;;0.80;;
61685;SDS011;47592;45.904;8.978;2023-08-07T08:42:51;2.55;;;0.85;;
61685;SDS011;47592;45.904;8.978;2023-08-07T08:45:18;2.53;;;0.77;;
61685;SDS011;47592;45.904;8.978;2023-08-07T08:47:45;2.17;;;0.60;;
61685;SDS011;47592;45.904;8.978;2023-08-07T08:50:12;1.63;;;0.60;;
61685;SDS011;47592;45.904;8.978;2023-08-07T08:52:40;1.27;;;0.50;;
61685;SDS011;47592;45.904;8.978;2023-08-07T08:55:05;1.42;;;0.43;;
61685;SDS011;47592;45.904;8.978;2023-08-07T08:57:31;1.33;;;0.40;;
61685;SDS011;47592;45.904;8.978;2023-08-07T09:00:00;1.20;;;0.32;;
61685;SDS011;47592;45.904;8.978;2023-08-07T09:02:27;2.30;;;0.80;;
61685;SDS011;47592;45.904;8.978;2023-08-07T09:04:54;2.58;;;0.82;;
61685;SDS011;47592;45.904;8.978;2023-08-07T09:07:22;2.90;;;0.90;;
61685;SDS011;47592;45.904;8.978;2023-08-07T09:09:48;1.63;;;0.60;;
61685;SDS011;47592;45.904;8.978;2023-08-07T09:12:21;2.28;;;0.60;;
61685;SDS011;47592;45.904;8.978;2023-08-07T09:14:52;2.20;;;0.80;;
61685;SDS011;47592;45.904;8.978;2023-08-07T09:17:26;3.17;;;1.23;;
61685;SDS011;47592;45.904;8.978;2023-08-07T09:19:55;2.33;;;0.80;;
61685;SDS011;47592;45.904;8.978;2023-08-07T09:22:21;0.60;;;0.30;;
61685;SDS011;47592;45.904;8.978;2023-08-07T09:24:46;1.30;;;0.40;;
61685;SDS011;47592;45.904;8.978;2023-08-07T09:27:11;0.50;;;0.20;;
61685;SDS011;47592;45.904;8.978;2023-08-07T09:29:39;1.38;;;0.30;;
61685;SDS011;47592;45.904;8.978;2023-08-07T09:32:08;0.75;;;0.20;;
61685;SDS011;47592;45.904;8.978;2023-08-07T09:34:33;1.25;;;0.43;;
61685;SDS011;47592;45.904;8.978;2023-08-07T09:36:58;1.47;;;0.40;;
61685;SDS011;47592;45.904;8.978;2023-08-07T09:39:24;2.10;;;0.50;;
61685;SDS011;47592;45.904;8.978;2023-08-07T09:41:54;3.38;;;1.15;;
61685;SDS011;47592;45.904;8.978;2023-08-07T09:44:19;1.83;;;0.60;;
61685;SDS011;47592;45.904;8.978;2023-08-07T09:46:46;2.00;;;0.57;;
61685;SDS011;47592;45.904;8.978;2023-08-07T09:49:11;3.08;;;0.85;;
61685;SDS011;47592;45.904;8.978;2023-08-07T09:51:47;2.90;;;1.00;;
61685;SDS011;47592;45.904;8.978;2023-08-07T09:54:12;1.65;;;0.60;;
61685;SDS011;47592;45.904;8.978;2023-08-07T09:56:38;0.60;;;0.20;;
61685;SDS011;47592;45.904;8.978;2023-08-07T09:59:04;1.02;;;0.32;;
61685;SDS011;47592;45.904;8.978;2023-08-07T10:01:29;0.80;;;0.20;;
61685;SDS011;47592;45.904;8.978;2023-08-07T10:03:54;0.82;;;0.20;;
61685;SDS011;47592;45.904;8.978;2023-08-07T10:06:22;0.73;;;0.20;;
61685;SDS011;47592;45.904;8.978;2023-08-07T10:08:50;0.65;;;0.17;;
61685;SDS011;47592;45.904;8.978;2023-08-07T10:11:15;0.68;;;0.20;;
61685;SDS011;47592;45.904;8.978;2023-08-07T10:13:41;0.88;;;0.30;;
61685;SDS011;47592;45.904;8.978;2023-08-07T10:16:07;0.77;;;0.20;;
61685;SDS011;47592;45.904;8.978;2023-08-07T10:18:34;0.63;;;0.13;;
61685;SDS011;47592;45.904;8.978;2023-08-07T10:21:02;0.10;;;0.05;;
61685;SDS011;47592;45.904;8.978;2023-08-07T10:23:27;0.63;;;0.20;;
61685;SDS011;47592;45.904;8.978;2023-08-07T10:25:52;1.33;;;0.30;;
61685;SDS011;47592;45.904;8.978;2023-08-07T10:28:20;1.33;;;0.30;;
61685;SDS011;47592;45.904;8.978;2023-08-07T10:30:50;2.33;;;0.30;;
61685;SDS011;47592;45.904;8.978;2023-08-07T10:33:15;0.98;;;0.30;;
61685;SDS011;47592;45.904;8.978;2023-08-07T10:35:46;0.73;;;0.20;;
61685;SDS011;47592;45.904;8.978;2023-08-07T10:38:13;1.10;;;0.35;;
61685;SDS011;47592;45.904;8.978;2023-08-07T10:43:23;1.45;;;0.30;;
61685;SDS011;47592;45.904;8.978;2023-08-07T10:45:48;0.50;;;0.20;;
61685;SDS011;47592;45.904;8.978;2023-08-07T10:48:17;0.70;;;0.20;;
61685;SDS011;47592;45.904;8.978;2023-08-07T10:50:55;0.75;;;0.20;;
61685;SDS011;47592;45.904;8.978;2023-08-07T10:53:29;0.40;;;0.20;;
61685;SDS011;47592;45.904;8.978;2023-08-07T10:56:18;0.70;;;0.30;;
61685;SDS011;47592;45.904;8.978;2023-08-07T10:58:42;1.58;;;0.40;;
61685;SDS011;47592;45.904;8.978;2023-08-07T11:01:39;1.00;;;0.25;;
61685;SDS011;47592;45.904;8.978;2023-08-07T11:04:08;0.98;;;0.28;;
61685;SDS011;47592;45.904;8.978;2023-08-07T11:06:34;1.05;;;0.30;;
61685;SDS011;47592;45.904;8.978;2023-08-07T11:09:00;0.77;;;0.25;;
61685;SDS011;47592;45.904;8.978;2023-08-07T11:11:28;1.23;;;0.32;;
61685;SDS011;47592;45.904;8.978;2023-08-07T11:13:53;2.13;;;0.40;;
61685;SDS011;47592;45.904;8.978;2023-08-07T11:16:19;1.50;;;0.30;;
61685;SDS011;47592;45.904;8.978;2023-08-07T11:18:46;0.95;;;0.28;;
61685;SDS011;47592;45.904;8.978;2023-08-07T11:21:12;1.73;;;0.32;;
61685;SDS011;47592;45.904;8.978;2023-08-07T11:23:38;1.40;;;0.40;;
61685;SDS011;47592;45.904;8.978;2023-08-07T11:26:03;1.92;;;0.30;;
61685;SDS011;47592;45.904;8.978;2023-08-07T11:28:29;0.88;;;0.25;;
61685;SDS011;47592;45.904;8.978;2023-08-07T11:30:56;1.58;;;0.38;;
61685;SDS011;47592;45.904;8.978;2023-08-07T11:33:25;0.68;;;0.20;;
61685;SDS011;47592;45.904;8.978;2023-08-07T11:35:51;1.40;;;0.30;;
61685;SDS011;47592;45.904;8.978;2023-08-07T11:38:32;1.53;;;0.30;;
61685;SDS011;47592;45.904;8.978;2023-08-07T11:40:58;0.60;;;0.20;;
61685;SDS011;47592;45.904;8.978;2023-08-07T11:43:24;1.08;;;0.30;;
61685;SDS011;47592;45.904;8.978;2023-08-07T11:45:50;0.85;;;0.30;;
61685;SDS011;47592;45.904;8.978;2023-08-07T11:48:15;1.90;;;0.50;;
61685;SDS011;47592;45.904;8.978;2023-08-07T11:50:40;0.70;;;0.30;;
61685;SDS011;47592;45.904;8.978;2023-08-07T11:53:06;0.95;;;0.20;;
61685;SDS011;47592;45.904;8.978;2023-08-07T11:55:31;1.00;;;0.23;;
61685;SDS011;47592;45.904;8.978;2023-08-07T11:57:56;1.10;;;0.33;;
61685;SDS011;47592;45.904;8.978;2023-08-07T12:00:24;0.80;;;0.30;;
61685;SDS011;47592;45.904;8.978;2023-08-07T12:02:52;1.17;;;0.30;;
61685;SDS011;47592;45.904;8.978;2023-08-07T12:05:18;1.03;;;0.30;;
61685;SDS011;47592;45.904;8.978;2023-08-07T12:07:46;0.90;;;0.30;;
61685;SDS011;47592;45.904;8.978;2023-08-07T12:10:12;0.95;;;0.32;;
61685;SDS011;47592;45.904;8.978;2023-08-07T12:12:37;0.90;;;0.30;;
61685;SDS011;47592;45.904;8.978;2023-08-07T12:15:05;1.13;;;0.35;;
61685;SDS011;47592;45.904;8.978;2023-08-07T12:17:31;0.70;;;0.20;;
61685;SDS011;47592;45.904;8.978;2023-08-07T12:19:59;0.85;;;0.22;;
61685;SDS011;47592;45.904;8.978;2023-08-07T12:22:26;0.65;;;0.30;;
61685;SDS011;47592;45.904;8.978;2023-08-07T12:24:54;1.17;;;0.30;;
61685;SDS011;47592;45.904;8.978;2023-08-07T12:27:20;1.15;;;0.28;;
61685;SDS011;47592;45.904;8.978;2023-08-07T12:29:45;1.10;;;0.30;;
61685;SDS011;47592;45.904;8.978;2023-08-07T12:32:10;1.13;;;0.30;;
61685;SDS011;47592;45.904;8.978;2023-08-07T12:34:36;1.53;;;0.40;;
61685;SDS011;47592;45.904;8.978;2023-08-07T12:37:03;1.10;;;0.13;;
61685;SDS011;47592;45.904;8.978;2023-08-07T12:39:28;1.42;;;0.30;;
61685;SDS011;47592;45.904;8.978;2023-08-07T12:41:53;1.03;;;0.23;;
61685;SDS011;47592;45.904;8.978;2023-08-07T12:44:18;1.27;;;0.30;;
61685;SDS011;47592;45.904;8.978;2023-08-07T12:46:43;1.07;;;0.40;;
61685;SDS011;47592;45.904;8.978;2023-08-07T12:49:09;0.80;;;0.30;;
61685;SDS011;47592;45.904;8.978;2023-08-07T12:51:36;1.65;;;0.50;;
61685;SDS011;47592;45.904;8.978;2023-08-07T12:54:02;1.83;;;0.50;;
61685;SDS011;47592;45.904;8.978;2023-08-07T12:56:27;1.15;;;0.38;;
61685;SDS011;47592;45.904;8.978;2023-08-07T12:58:52;1.77;;;0.40;;
61685;SDS011;47592;45.904;8.978;2023-08-07T13:01:17;1.90;;;0.50;;
61685;SDS011;47592;45.904;8.978;2023-08-07T13:03:45;2.05;;;0.40;;
61685;SDS011;47592;45.904;8.978;2023-08-07T13:06:10;1.27;;;0.40;;
61685;SDS011;47592;45.904;8.978;2023-08-07T13:08:38;1.25;;;0.40;;
61685;SDS011;47592;45.904;8.978;2023-08-07T13:11:04;1.13;;;0.40;;
61685;SDS011;47592;45.904;8.978;2023-08-07T13:13:31;1.38;;;0.45;;
61685;SDS011;47592;45.904;8.978;2023-08-07T13:15:57;1.58;;;0.40;;
61685;SDS011;47592;45.904;8.978;2023-08-07T13:18:22;1.73;;;0.50;;
61685;SDS011;47592;45.904;8.978;2023-08-07T13:20:47;1.23;;;0.32;;
61685;SDS011;47592;45.904;8.978;2023-08-07T13:23:13;1.63;;;0.47;;
61685;SDS011;47592;45.904;8.978;2023-08-07T13:25:39;2.15;;;0.60;;
61685;SDS011;47592;45.904;8.978;2023-08-07T13:28:04;2.58;;;0.43;;
61685;SDS011;47592;45.904;8.978;2023-08-07T13:30:34;2.00;;;0.52;;
61685;SDS011;47592;45.904;8.978;2023-08-07T13:33:00;1.95;;;0.50;;
61685;SDS011;47592;45.904;8.978;2023-08-07T13:35:27;1.17;;;0.40;;
61685;SDS011;47592;45.904;8.978;2023-08-07T13:37:55;1.35;;;0.43;;
61685;SDS011;47592;45.904;8.978;2023-08-07T13:40:21;1.90;;;0.47;;
61685;SDS011;47592;45.904;8.978;2023-08-07T13:42:46;1.43;;;0.50;;
61685;SDS011;47592;45.904;8.978;2023-08-07T13:45:11;1.67;;;0.57;;
61685;SDS011;47592;45.904;8.978;2023-08-07T13:47:38;1.88;;;0.52;;
61685;SDS011;47592;45.904;8.978;2023-08-07T13:50:03;2.70;;;0.70;;
61685;SDS011;47592;45.904;8.978;2023-08-07T13:52:32;1.90;;;0.50;;
61685;SDS011;47592;45.904;8.978;2023-08-07T13:54:57;2.05;;;0.70;;
61685;SDS011;47592;45.904;8.978;2023-08-07T13:57:24;2.30;;;0.60;;
61685;SDS011;47592;45.904;8.978;2023-08-07T13:59:50;1.50;;;0.53;;
61685;SDS011;47592;45.904;8.978;2023-08-07T14:02:15;1.80;;;0.50;;
61685;SDS011;47592;45.904;8.978;2023-08-07T14:04:40;1.93;;;0.60;;
61685;SDS011;47592;45.904;8.978;2023-08-07T14:09:35;1.77;;;0.50;;
61685;SDS011;47592;45.904;8.978;2023-08-07T14:12:03;2.08;;;0.60;;
61685;SDS011;47592;45.904;8.978;2023-08-07T14:14:30;2.63;;;0.50;;
61685;SDS011;47592;45.904;8.978;2023-08-07T14:16:55;2.90;;;0.60;;
61685;SDS011;47592;45.904;8.978;2023-08-07T14:19:27;1.92;;;0.60;;
61685;SDS011;47592;45.904;8.978;2023-08-07T14:21:53;1.52;;;0.52;;
61685;SDS011;47592;45.904;8.978;2023-08-07T14:24:18;2.77;;;0.80;;
61685;SDS011;47592;45.904;8.978;2023-08-07T14:26:46;1.67;;;0.50;;
61685;SDS011;47592;45.904;8.978;2023-08-07T14:29:12;2.10;;;0.60;;
61685;SDS011;47592;45.904;8.978;2023-08-07T14:31:37;2.33;;;0.60;;
61685;SDS011;47592;45.904;8.978;2023-08-07T14:34:03;2.50;;;0.63;;
61685;SDS011;47592;45.904;8.978;2023-08-07T14:36:28;2.30;;;0.70;;
61685;SDS011;47592;45.904;8.978;2023-08-07T14:38:53;2.33;;;0.60;;
61685;SDS011;47592;45.904;8.978;2023-08-07T14:41:21;2.00;;;0.52;;
61685;SDS011;47592;45.904;8.978;2023-08-07T14:43:48;2.03;;;0.60;;
61685;SDS011;47592;45.904;8.978;2023-08-07T14:46:16;2.45;;;0.77;;
61685;SDS011;47592;45.904;8.978;2023-08-07T14:48:42;2.40;;;0.70;;
61685;SDS011;47592;45.904;8.978;2023-08-07T14:51:07;2.95;;;0.80;;
61685;SDS011;47592;45.904;8.978;2023-08-07T14:53:32;3.15;;;0.60;;